Time,TemperatureF,DewpointF,PressureIn,WindDirection,WindDirectionDegrees,WindSpeedMPH,WindSpeedGustMPH,Humidity,HourlyPrecipIn,Conditions,Clouds,dailyrainin,SoftwareType,DateUTC
2013-01-10 00:00:00,41.9,29.0,29.98,NNW,333,2.0,2.0,60,0.00,,,0.00,Wunderground v.1.15,2013-01-10 05:00:00,
2013-01-10 00:01:00,41.8,28.9,29.98,NNE,19,2.0,6.0,60,0.00,,,0.00,Wunderground v.1.15,2013-01-10 05:01:00,
2013-01-10 00:02:00,41.8,28.9,29.98,WNW,286,2.0,15.0,60,0.00,,,0.00,Wunderground v.1.15,2013-01-10 05:02:00,
2013-01-10 00:03:00,41.8,28.9,29.98,NNW,338,2.0,15.0,60,0.00,,,0.00,Wunderground v.1.15,2013-01-10 05:03:00,
2013-01-10 00:09:00,41.8,28.9,29.99,SE,136,2.0,15.0,60,0.00,,,0.00,Wunderground v.1.15,2013-01-10 05:09:00,
2013-01-10 00:15:00,41.6,29.1,29.99,South,179,2.0,11.0,61,0.00,,,0.00,Wunderground v.1.15,2013-01-10 05:15:00,
2013-01-10 00:21:00,41.5,29.4,29.99,North,349,2.0,8.0,62,0.00,,,0.00,Wunderground v.1.15,2013-01-10 05:21:00,
2013-01-10 00:27:00,41.4,29.7,29.99,East,93,3.0,8.0,63,0.00,,,0.00,Wunderground v.1.15,2013-01-10 05:27:00,
2013-01-10 00:33:00,41.1,29.8,30.00,WNW,295,2.0,5.0,64,0.00,,,0.00,Wunderground v.1.15,2013-01-10 05:33:00,
2013-01-10 00:39:00,41.0,30.9,30.00,SW,217,2.0,11.0,67,0.00,,,0.00,Wunderground v.1.15,2013-01-10 05:39:00,
2013-01-10 00:45:00,40.7,31.7,30.00,SSW,209,4.0,7.0,70,0.00,,,0.00,Wunderground v.1.15,2013-01-10 05:45:00,
2013-01-10 00:51:00,40.2,31.9,30.00,NW,313,4.0,5.0,72,0.00,,,0.00,Wunderground v.1.15,2013-01-10 05:51:00,
2013-01-10 00:57:00,40.0,32.4,30.01,NE,56,2.0,5.0,74,0.00,,,0.00,Wunderground v.1.15,2013-01-10 05:57:00,
2013-01-10 01:02:00,39.6,33.0,30.01,East,94,2.0,7.0,77,0.00,,,0.00,Wunderground v.1.15,2013-01-10 06:02:00,
2013-01-10 01:08:00,38.9,32.9,30.02,WNW,286,2.0,7.0,79,0.00,,,0.00,Wunderground v.1.15,2013-01-10 06:08:00,
2013-01-10 01:14:00,38.5,33.2,30.02,SSW,200,2.0,16.0,81,0.00,,,0.00,Wunderground v.1.15,2013-01-10 06:14:00,
2013-01-10 01:20:00,38.2,33.2,30.02,NW,325,4.0,4.0,82,0.00,,,0.00,Wunderground v.1.15,2013-01-10 06:20:00,
2013-01-10 01:26:00,38.2,33.2,30.03,NNW,338,3.0,4.0,82,0.00,,,0.00,Wunderground v.1.15,2013-01-10 06:26:00,
2013-01-10 01:32:00,38.3,33.0,30.03,SW,216,3.0,3.0,81,0.00,,,0.00,Wunderground v.1.15,2013-01-10 06:32:00,
2013-01-10 01:38:00,38.4,33.1,30.04,SSW,211,4.0,6.0,81,0.00,,,0.00,Wunderground v.1.15,2013-01-10 06:38:00,
2013-01-10 01:44:00,38.6,32.6,30.04,WNW,289,5.0,5.0,79,0.00,,,0.01,Wunderground v.1.15,2013-01-10 06:44:00,
2013-01-10 01:50:00,38.7,32.4,30.05,West,271,5.0,5.0,78,0.00,,,0.01,Wunderground v.1.15,2013-01-10 06:50:00,
2013-01-10 01:56:00,38.7,32.1,30.06,North,355,4.0,7.0,77,0.00,,,0.01,Wunderground v.1.15,2013-01-10 06:56:00,
2013-01-10 02:01:00,38.8,31.9,30.06,North,9,4.0,8.0,76,0.00,,,0.01,Wunderground v.1.15,2013-01-10 07:01:00,
2013-01-10 02:07:00,38.8,31.6,30.07,North,350,4.0,10.0,75,0.00,,,0.01,Wunderground v.1.15,2013-01-10 07:07:00,
2013-01-10 02:13:00,38.9,31.3,30.07,West,268,4.0,7.0,74,0.00,,,0.01,Wunderground v.1.15,2013-01-10 07:13:00,
2013-01-10 02:19:00,39.1,31.5,30.08,West,280,5.0,7.0,74,0.00,,,0.01,Wunderground v.1.15,2013-01-10 07:19:00,
2013-01-10 02:25:00,39.2,31.3,30.08,NNW,341,3.0,4.0,73,0.00,,,0.01,Wunderground v.1.15,2013-01-10 07:25:00,
2013-01-10 02:31:00,39.1,31.2,30.09,NNE,17,3.0,3.0,73,0.00,,,0.01,Wunderground v.1.15,2013-01-10 07:31:00,
2013-01-10 02:37:00,39.0,31.1,30.09,ESE,109,3.0,7.0,73,0.00,,,0.01,Wunderground v.1.15,2013-01-10 07:37:00,
2013-01-10 02:42:00,38.8,31.2,30.10,NE,56,2.0,3.0,74,0.00,,,0.01,Wunderground v.1.15,2013-01-10 07:42:00,
2013-01-10 02:48:00,38.7,31.1,30.10,WNW,299,2.0,4.0,74,0.00,,,0.01,Wunderground v.1.15,2013-01-10 07:48:00,
2013-01-10 02:54:00,38.6,31.0,30.10,NNW,338,3.0,6.0,74,0.00,,,0.01,Wunderground v.1.15,2013-01-10 07:54:00,
2013-01-10 03:00:00,38.7,31.1,30.11,WSW,254,3.0,3.0,74,0.00,,,0.01,Wunderground v.1.15,2013-01-10 08:00:00,
2013-01-10 03:05:00,38.7,31.1,30.11,SW,217,2.0,15.0,74,0.00,,,0.01,Wunderground v.1.15,2013-01-10 08:05:00,
2013-01-10 03:11:00,38.7,31.1,30.12,WNW,286,2.0,4.0,74,0.00,,,0.01,Wunderground v.1.15,2013-01-10 08:11:00,
2013-01-10 03:17:00,38.7,30.8,30.13,NW,323,4.0,12.0,73,0.00,,,0.01,Wunderground v.1.15,2013-01-10 08:17:00,
2013-01-10 03:23:00,38.7,30.8,30.13,North,11,4.0,4.0,73,0.00,,,0.01,Wunderground v.1.15,2013-01-10 08:23:00,
2013-01-10 03:28:00,38.8,30.5,30.13,North,360,4.0,11.0,72,0.00,,,0.01,Wunderground v.1.15,2013-01-10 08:28:00,
2013-01-10 03:34:00,38.6,30.4,30.15,NNW,343,3.0,12.0,72,0.00,,,0.01,Wunderground v.1.15,2013-01-10 08:34:00,
2013-01-10 03:40:00,38.6,30.4,30.15,North,355,4.0,4.0,72,0.00,,,0.01,Wunderground v.1.15,2013-01-10 08:40:00,
2013-01-10 03:46:00,38.6,30.4,30.16,WNW,291,3.0,13.0,72,0.00,,,0.01,Wunderground v.1.15,2013-01-10 08:46:00,
2013-01-10 03:52:00,38.6,30.0,30.15,WNW,287,4.0,7.0,71,0.00,,,0.01,Wunderground v.1.15,2013-01-10 08:52:00,
2013-01-10 03:58:00,38.5,30.3,30.16,South,181,5.0,9.0,72,0.00,,,0.01,Wunderground v.1.15,2013-01-10 08:58:00,
2013-01-10 04:04:00,38.5,30.3,30.17,NNW,329,5.0,11.0,72,0.00,,,0.01,Wunderground v.1.15,2013-01-10 09:04:00,
2013-01-10 04:10:00,38.5,29.9,30.17,West,260,4.0,4.0,71,0.00,,,0.01,Wunderground v.1.15,2013-01-10 09:10:00,
2013-01-10 04:16:00,38.4,29.8,30.17,NNE,14,3.0,4.0,71,0.00,,,0.01,Wunderground v.1.15,2013-01-10 09:16:00,
2013-01-10 04:22:00,38.4,29.5,30.17,ENE,64,3.0,3.0,70,0.00,,,0.01,Wunderground v.1.15,2013-01-10 09:22:00,
2013-01-10 04:27:00,38.4,29.5,30.17,NNW,333,2.0,6.0,70,0.00,,,0.01,Wunderground v.1.15,2013-01-10 09:27:00,
2013-01-10 04:33:00,38.5,29.2,30.18,NNE,17,3.0,5.0,69,0.00,,,0.01,Wunderground v.1.15,2013-01-10 09:33:00,
2013-01-10 04:39:00,38.6,28.9,30.18,NW,307,3.0,5.0,68,0.00,,,0.01,Wunderground v.1.15,2013-01-10 09:39:00,
2013-01-10 04:45:00,38.5,28.9,30.19,NNW,333,3.0,4.0,68,0.00,,,0.01,Wunderground v.1.15,2013-01-10 09:45:00,
2013-01-10 04:50:00,38.7,28.3,30.19,NNW,341,5.0,5.0,66,0.00,,,0.01,Wunderground v.1.15,2013-01-10 09:50:00,
2013-01-10 04:56:00,38.7,28.3,30.20,West,281,4.0,5.0,66,0.00,,,0.01,Wunderground v.1.15,2013-01-10 09:56:00,
2013-01-10 05:02:00,38.7,27.9,30.20,NNE,19,4.0,16.0,65,0.00,,,0.01,Wunderground v.1.15,2013-01-10 10:02:00,
2013-01-10 05:07:00,38.8,28.0,30.20,NNE,15,6.0,16.0,65,0.00,,,0.01,Wunderground v.1.15,2013-01-10 10:07:00,
2013-01-10 05:13:00,38.8,27.7,30.20,NNE,25,7.0,17.0,64,0.00,,,0.01,Wunderground v.1.15,2013-01-10 10:13:00,
2013-01-10 05:19:00,38.7,27.6,30.20,NNW,332,6.0,17.0,64,0.00,,,0.01,Wunderground v.1.15,2013-01-10 10:19:00,
2013-01-10 05:25:00,38.7,27.2,30.20,NNE,24,5.0,9.0,63,0.00,,,0.01,Wunderground v.1.15,2013-01-10 10:25:00,
2013-01-10 05:31:00,38.5,27.0,30.20,NNW,338,4.0,4.0,63,0.00,,,0.01,Wunderground v.1.15,2013-01-10 10:31:00,
2013-01-10 05:36:00,38.5,26.6,30.20,NNW,342,3.0,6.0,62,0.00,,,0.01,Wunderground v.1.15,2013-01-10 10:36:00,
2013-01-10 05:42:00,38.4,26.9,30.21,NNW,338,3.0,3.0,63,0.00,,,0.01,Wunderground v.1.15,2013-01-10 10:42:00,
2013-01-10 05:48:00,38.5,26.6,30.22,NNE,33,2.0,4.0,62,0.00,,,0.01,Wunderground v.1.15,2013-01-10 10:48:00,
2013-01-10 05:54:00,38.5,26.2,30.22,NNW,344,3.0,10.0,61,0.00,,,0.01,Wunderground v.1.15,2013-01-10 10:54:00,
2013-01-10 05:59:00,38.4,26.1,30.22,NNW,335,3.0,10.0,61,0.00,,,0.01,Wunderground v.1.15,2013-01-10 10:59:00,
2013-01-10 06:05:00,38.4,25.7,30.23,NW,325,3.0,16.0,60,0.00,,,0.01,Wunderground v.1.15,2013-01-10 11:05:00,
2013-01-10 06:10:00,38.3,26.0,30.23,NW,313,3.0,4.0,61,0.00,,,0.01,Wunderground v.1.15,2013-01-10 11:10:00,
2013-01-10 06:16:00,37.9,25.2,30.23,NW,310,2.0,4.0,60,0.00,,,0.01,Wunderground v.1.15,2013-01-10 11:16:00,
2013-01-10 06:22:00,37.8,24.7,30.24,NE,49,3.0,5.0,59,0.00,,,0.01,Wunderground v.1.15,2013-01-10 11:22:00,
2013-01-10 06:28:00,38.0,24.5,30.24,ENE,61,4.0,7.0,58,0.00,,,0.01,Wunderground v.1.15,2013-01-10 11:28:00,
2013-01-10 06:34:00,38.0,24.1,30.24,North,355,4.0,5.0,57,0.00,,,0.01,Wunderground v.1.15,2013-01-10 11:34:00,
2013-01-10 06:40:00,37.8,24.3,30.25,North,5,3.0,3.0,58,0.00,,,0.01,Wunderground v.1.15,2013-01-10 11:40:00,
2013-01-10 06:46:00,37.6,23.7,30.25,North,355,3.0,11.0,57,0.00,,,0.01,Wunderground v.1.15,2013-01-10 11:46:00,
2013-01-10 06:52:00,37.7,23.8,30.26,North,351,3.0,5.0,57,0.00,,,0.01,Wunderground v.1.15,2013-01-10 11:52:00,
2013-01-10 06:58:00,37.7,23.8,30.26,NW,313,3.0,10.0,57,0.00,,,0.01,Wunderground v.1.15,2013-01-10 11:58:00,
2013-01-10 07:04:00,37.6,23.7,30.26,NNW,345,2.0,16.0,57,0.00,,,0.01,Wunderground v.1.15,2013-01-10 12:04:00,
2013-01-10 07:10:00,37.4,23.5,30.26,North,355,2.0,3.0,57,0.00,,,0.01,Wunderground v.1.15,2013-01-10 12:10:00,
2013-01-10 07:16:00,37.3,23.9,30.27,NNW,337,2.0,4.0,58,0.00,,,0.01,Wunderground v.1.15,2013-01-10 12:16:00,
2013-01-10 07:21:00,37.0,23.6,30.27,West,259,2.0,2.0,58,0.00,,,0.01,Wunderground v.1.15,2013-01-10 12:21:00,
2013-01-10 07:27:00,37.0,24.0,30.28,NW,317,1.0,5.0,59,0.00,,,0.01,Wunderground v.1.15,2013-01-10 12:27:00,
2013-01-10 07:33:00,37.0,24.0,30.29,North,5,1.0,2.0,59,0.00,,,0.01,Wunderground v.1.15,2013-01-10 12:33:00,
2013-01-10 07:39:00,36.8,24.2,30.29,NNW,334,1.0,2.0,60,0.00,,,0.01,Wunderground v.1.15,2013-01-10 12:39:00,
2013-01-10 07:45:00,36.8,24.2,30.30,NW,315,1.0,6.0,60,0.00,,,0.01,Wunderground v.1.15,2013-01-10 12:45:00,
2013-01-10 07:51:00,37.2,24.6,30.30,NNW,334,4.0,12.0,60,0.00,,,0.01,Wunderground v.1.15,2013-01-10 12:51:00,
2013-01-10 07:57:00,37.5,24.9,30.30,NW,324,4.0,12.0,60,0.00,,,0.01,Wunderground v.1.15,2013-01-10 12:57:00,
2013-01-10 08:02:00,37.7,25.1,30.31,North,350,3.0,11.0,60,0.00,,,0.01,Wunderground v.1.15,2013-01-10 13:02:00,
2013-01-10 08:08:00,37.9,25.2,30.31,NNW,348,4.0,11.0,60,0.00,,,0.01,Wunderground v.1.15,2013-01-10 13:08:00,
2013-01-10 08:14:00,37.9,25.2,30.32,NNW,346,4.0,9.0,60,0.00,,,0.01,Wunderground v.1.15,2013-01-10 13:14:00,
2013-01-10 08:20:00,38.0,25.7,30.32,NNW,343,3.0,4.0,61,0.00,,,0.01,Wunderground v.1.15,2013-01-10 13:20:00,
2013-01-10 08:26:00,38.2,25.5,30.32,North,349,3.0,13.0,60,0.00,,,0.01,Wunderground v.1.15,2013-01-10 13:26:00,
2013-01-10 08:32:00,38.3,25.6,30.33,North,9,4.0,7.0,60,0.00,,,0.01,Wunderground v.1.15,2013-01-10 13:32:00,
2013-01-10 08:38:00,38.2,25.5,30.33,North,360,5.0,7.0,60,0.00,,,0.01,Wunderground v.1.15,2013-01-10 13:38:00,
2013-01-10 08:44:00,38.2,25.5,30.33,NW,321,4.0,12.0,60,0.00,,,0.01,Wunderground v.1.15,2013-01-10 13:44:00,
2013-01-10 08:50:00,38.7,26.0,30.33,NW,325,3.0,3.0,60,0.00,,,0.01,Wunderground v.1.15,2013-01-10 13:50:00,
2013-01-10 08:55:00,39.0,25.9,30.33,NNE,13,3.0,7.0,59,0.00,,,0.01,Wunderground v.1.15,2013-01-10 13:55:00,
2013-01-10 09:01:00,39.3,26.6,30.33,NE,34,4.0,5.0,60,0.00,,,0.01,Wunderground v.1.15,2013-01-10 14:01:00,
2013-01-10 09:07:00,39.4,25.8,30.33,WNW,299,5.0,8.0,58,0.00,,,0.01,Wunderground v.1.15,2013-01-10 14:07:00,
2013-01-10 09:13:00,39.5,25.9,30.33,North,355,8.0,13.0,58,0.00,,,0.01,Wunderground v.1.15,2013-01-10 14:13:00,
2013-01-10 09:19:00,39.7,26.1,30.33,North,355,7.0,13.0,58,0.00,,,0.01,Wunderground v.1.15,2013-01-10 14:19:00,
2013-01-10 09:25:00,39.7,26.5,30.32,NNE,18,8.0,9.0,59,0.00,,,0.01,Wunderground v.1.15,2013-01-10 14:25:00,
2013-01-10 09:31:00,39.7,26.5,30.32,North,355,7.0,8.0,59,0.00,,,0.01,Wunderground v.1.15,2013-01-10 14:31:00,
2013-01-10 09:37:00,39.9,26.3,30.33,NNW,348,7.0,13.0,58,0.00,,,0.01,Wunderground v.1.15,2013-01-10 14:37:00,
2013-01-10 09:43:00,39.8,26.6,30.32,North,355,8.0,16.0,59,0.00,,,0.01,Wunderground v.1.15,2013-01-10 14:43:00,
2013-01-10 09:48:00,39.9,26.7,30.33,NNE,18,8.0,16.0,59,0.00,,,0.01,Wunderground v.1.15,2013-01-10 14:48:00,
2013-01-10 09:54:00,40.0,26.4,30.33,North,5,8.0,18.0,58,0.00,,,0.01,Wunderground v.1.15,2013-01-10 14:54:00,
2013-01-10 09:59:00,40.1,26.5,30.33,NNW,348,9.0,18.0,58,0.00,,,0.01,Wunderground v.1.15,2013-01-10 14:59:00,
2013-01-10 10:05:00,40.0,26.4,30.34,North,355,10.0,15.0,58,0.00,,,0.01,Wunderground v.1.15,2013-01-10 15:05:00,
2013-01-10 10:11:00,40.0,26.8,30.34,North,9,10.0,16.0,59,0.00,,,0.01,Wunderground v.1.15,2013-01-10 15:11:00,
2013-01-10 10:17:00,40.0,26.8,30.34,West,259,10.0,16.0,59,0.00,,,0.01,Wunderground v.1.15,2013-01-10 15:17:00,
2013-01-10 10:23:00,40.1,26.5,30.34,WNW,298,10.0,17.0,58,0.00,,,0.01,Wunderground v.1.15,2013-01-10 15:23:00,
2013-01-10 10:29:00,40.3,26.7,30.34,NNW,342,11.0,17.0,58,0.00,,,0.01,Wunderground v.1.15,2013-01-10 15:29:00,
2013-01-10 12:37:00,40.3,26.7,30.32,NNW,327,11.0,21.0,58,0.00,,,0.01,Wunderground v.1.15,2013-01-10 17:37:00,
2013-01-10 12:42:00,40.2,26.2,30.33,NW,321,9.0,15.0,57,0.00,,,0.01,Wunderground v.1.15,2013-01-10 17:42:00,
2013-01-10 12:48:00,40.2,26.2,30.33,North,360,9.0,15.0,57,0.00,,,0.01,Wunderground v.1.15,2013-01-10 17:48:00,
2013-01-10 12:54:00,40.1,26.1,30.33,North,355,9.0,10.0,57,0.00,,,0.01,Wunderground v.1.15,2013-01-10 17:54:00,
2013-01-10 13:00:00,39.8,26.2,30.34,ENE,68,9.0,14.0,58,0.00,,,0.01,Wunderground v.1.15,2013-01-10 18:00:00,
2013-01-10 13:06:00,39.9,26.3,30.35,NNW,345,8.0,14.0,58,0.00,,,0.01,Wunderground v.1.15,2013-01-10 18:06:00,
2013-01-10 13:12:00,40.2,26.2,30.35,North,10,6.0,12.0,57,0.00,,,0.01,Wunderground v.1.15,2013-01-10 18:12:00,
2013-01-10 13:18:00,39.9,25.9,30.35,NE,52,9.0,12.0,57,0.00,,,0.01,Wunderground v.1.15,2013-01-10 18:18:00,
2013-01-10 13:38:00,40.1,26.1,30.35,North,355,11.0,11.0,57,0.00,,,0.01,Wunderground v.1.15,2013-01-10 18:38:00,
2013-01-10 13:44:00,40.1,26.1,30.35,NNW,346,12.0,14.0,57,0.00,,,0.01,Wunderground v.1.15,2013-01-10 18:44:00,
2013-01-10 13:50:00,40.0,26.4,30.35,NNE,19,11.0,21.0,58,0.00,,,0.01,Wunderground v.1.15,2013-01-10 18:50:00,
2013-01-10 13:56:00,40.1,26.5,30.36,NNW,346,10.0,21.0,58,0.00,,,0.01,Wunderground v.1.15,2013-01-10 18:56:00,
2013-01-10 14:02:00,40.2,26.2,30.37,North,360,8.0,9.0,57,0.00,,,0.01,Wunderground v.1.15,2013-01-10 19:02:00,
2013-01-10 14:08:00,40.2,26.2,30.37,West,281,10.0,12.0,57,0.00,,,0.01,Wunderground v.1.15,2013-01-10 19:08:00,
2013-01-10 14:14:00,40.3,26.3,30.37,NW,323,9.0,9.0,57,0.00,,,0.01,Wunderground v.1.15,2013-01-10 19:14:00,
2013-01-10 14:20:00,40.4,26.4,30.37,North,350,6.0,9.0,57,0.00,,,0.01,Wunderground v.1.15,2013-01-10 19:20:00,
2013-01-10 14:26:00,40.4,26.4,30.38,North,355,6.0,10.0,57,0.00,,,0.01,Wunderground v.1.15,2013-01-10 19:26:00,
2013-01-10 14:32:00,40.5,26.0,30.38,NNE,19,6.0,7.0,56,0.00,,,0.01,Wunderground v.1.15,2013-01-10 19:32:00,
2013-01-10 14:38:00,40.5,26.0,30.38,NNW,342,5.0,15.0,56,0.00,,,0.01,Wunderground v.1.15,2013-01-10 19:38:00,
2013-01-10 14:44:00,40.2,25.7,30.39,NNW,337,7.0,11.0,56,0.00,,,0.01,Wunderground v.1.15,2013-01-10 19:44:00,
2013-01-10 14:50:00,40.1,25.6,30.39,North,355,8.0,8.0,56,0.00,,,0.01,Wunderground v.1.15,2013-01-10 19:50:00,
2013-01-10 14:56:00,39.9,25.9,30.39,North,5,9.0,11.0,57,0.00,,,0.01,Wunderground v.1.15,2013-01-10 19:56:00,
2013-01-10 15:02:00,39.9,25.9,30.39,North,355,8.0,18.0,57,0.00,,,0.01,Wunderground v.1.15,2013-01-10 20:02:00,
2013-01-10 15:08:00,39.7,25.7,30.39,NW,323,10.0,21.0,57,0.00,,,0.01,Wunderground v.1.15,2013-01-10 20:08:00,
2013-01-10 15:14:00,39.6,25.6,30.39,NNW,338,9.0,14.0,57,0.00,,,0.01,Wunderground v.1.15,2013-01-10 20:14:00,
2013-01-10 15:20:00,39.5,25.5,30.39,NNW,341,8.0,8.0,57,0.00,,,0.01,Wunderground v.1.15,2013-01-10 20:20:00,
2013-01-10 15:26:00,39.4,25.8,30.40,North,349,8.0,11.0,58,0.00,,,0.01,Wunderground v.1.15,2013-01-10 20:26:00,
2013-01-10 15:32:00,39.3,25.7,30.40,NNW,329,8.0,12.0,58,0.00,,,0.01,Wunderground v.1.15,2013-01-10 20:32:00,
2013-01-10 15:38:00,39.2,25.6,30.40,NNE,21,7.0,13.0,58,0.00,,,0.01,Wunderground v.1.15,2013-01-10 20:38:00,
2013-01-10 15:44:00,39.1,25.6,30.41,North,355,7.0,12.0,58,0.00,,,0.01,Wunderground v.1.15,2013-01-10 20:44:00,
2013-01-10 15:50:00,38.9,25.4,30.41,WNW,302,6.0,10.0,58,0.00,,,0.01,Wunderground v.1.15,2013-01-10 20:50:00,
2013-01-10 15:56:00,38.7,25.2,30.41,North,5,6.0,10.0,58,0.00,,,0.01,Wunderground v.1.15,2013-01-10 20:56:00,
2013-01-10 16:02:00,38.7,25.2,30.42,North,360,5.0,21.0,58,0.00,,,0.01,Wunderground v.1.15,2013-01-10 21:02:00,
2013-01-10 16:08:00,38.5,25.0,30.43,NW,313,5.0,21.0,58,0.00,,,0.01,Wunderground v.1.15,2013-01-10 21:08:00,
2013-01-10 16:14:00,38.4,25.3,30.43,North,355,7.0,14.0,59,0.00,,,0.01,Wunderground v.1.15,2013-01-10 21:14:00,
2013-01-10 16:20:00,38.1,25.0,30.43,NNE,17,6.0,6.0,59,0.00,,,0.01,Wunderground v.1.15,2013-01-10 21:20:00,
2013-01-10 16:26:00,38.0,24.9,30.42,NW,325,6.0,11.0,59,0.00,,,0.01,Wunderground v.1.15,2013-01-10 21:26:00,
2013-01-10 16:32:00,37.8,24.7,30.42,North,5,5.0,6.0,59,0.00,,,0.01,Wunderground v.1.15,2013-01-10 21:32:00,
2013-01-10 16:38:00,37.7,25.1,30.43,NNE,25,3.0,9.0,60,0.00,,,0.01,Wunderground v.1.15,2013-01-10 21:38:00,
2013-01-10 16:44:00,37.5,24.9,30.44,North,5,2.0,3.0,60,0.00,,,0.01,Wunderground v.1.15,2013-01-10 21:44:00,
2013-01-10 16:50:00,37.3,24.7,30.45,ENE,58,1.0,1.0,60,0.00,,,0.01,Wunderground v.1.15,2013-01-10 21:50:00,
2013-01-10 16:56:00,37.1,24.9,30.44,ENE,65,0.0,2.0,61,0.00,,,0.01,Wunderground v.1.15,2013-01-10 21:56:00,
2013-01-10 17:02:00,36.9,24.7,30.44,NNW,327,1.0,14.0,61,0.00,,,0.01,Wunderground v.1.15,2013-01-10 22:02:00,
2013-01-10 17:08:00,36.9,24.7,30.44,North,5,2.0,14.0,61,0.00,,,0.01,Wunderground v.1.15,2013-01-10 22:08:00,
2013-01-10 17:14:00,36.9,25.1,30.44,NE,51,1.0,2.0,62,0.00,,,0.01,Wunderground v.1.15,2013-01-10 22:14:00,
2013-01-10 17:20:00,36.6,24.8,30.45,WNW,300,1.0,1.0,62,0.00,,,0.01,Wunderground v.1.15,2013-01-10 22:20:00,
2013-01-10 17:26:00,36.6,24.8,30.45,WNW,301,1.0,1.0,62,0.00,,,0.01,Wunderground v.1.15,2013-01-10 22:26:00,
2013-01-10 17:32:00,36.4,25.0,30.45,NW,317,1.0,3.0,63,0.00,,,0.01,Wunderground v.1.15,2013-01-10 22:32:00,
2013-01-10 17:38:00,36.3,24.9,30.45,North,5,3.0,12.0,63,0.00,,,0.01,Wunderground v.1.15,2013-01-10 22:38:00,
2013-01-10 17:44:00,36.2,24.8,30.45,NNW,337,3.0,3.0,63,0.00,,,0.01,Wunderground v.1.15,2013-01-10 22:44:00,
2013-01-10 17:50:00,35.9,24.9,30.46,North,355,2.0,2.0,64,0.00,,,0.01,Wunderground v.1.15,2013-01-10 22:50:00,
2013-01-10 22:34:00,33.0,25.0,30.50,NNW,327,4.0,4.0,72,0.00,,,0.01,Wunderground v.1.15,2013-01-11 03:34:00,
2013-01-10 22:40:00,33.0,25.0,30.52,NNW,329,2.0,4.0,72,0.00,,,0.01,Wunderground v.1.15,2013-01-11 03:40:00,
2013-01-10 22:46:00,32.9,24.9,30.51,NNW,346,2.0,2.0,72,0.00,,,0.01,Wunderground v.1.15,2013-01-11 03:46:00,
2013-01-10 22:52:00,32.8,24.8,30.51,NNW,345,1.0,2.0,72,0.00,,,0.01,Wunderground v.1.15,2013-01-11 03:52:00,
2013-01-10 22:58:00,32.6,24.6,30.50,WNW,300,1.0,2.0,72,0.00,,,0.01,Wunderground v.1.15,2013-01-11 03:58:00,
2013-01-10 23:04:00,32.5,24.5,30.51,WNW,294,1.0,1.0,72,0.00,,,0.01,Wunderground v.1.15,2013-01-11 04:04:00,
2013-01-10 23:10:00,32.6,24.6,30.52,NNW,342,0.0,0.0,72,0.00,,,0.01,Wunderground v.1.15,2013-01-11 04:10:00,
2013-01-10 23:16:00,32.6,24.6,30.51,North,360,1.0,4.0,72,0.00,,,0.01,Wunderground v.1.15,2013-01-11 04:16:00,
2013-01-10 23:22:00,32.5,24.5,30.51,SSW,200,1.0,1.0,72,0.00,,,0.01,Wunderground v.1.15,2013-01-11 04:22:00,
2013-01-10 23:28:00,32.0,24.3,30.50,SSW,200,0.0,1.0,73,0.00,,,0.01,Wunderground v.1.15,2013-01-11 04:28:00,
2013-01-10 23:34:00,31.6,24.3,30.51,SSW,200,0.0,0.0,74,0.00,,,0.01,Wunderground v.1.15,2013-01-11 04:34:00,
2013-01-10 23:40:00,31.2,23.9,30.51,SSW,200,0.0,0.0,74,0.00,,,0.01,Wunderground v.1.15,2013-01-11 04:40:00,
2013-01-10 23:46:00,30.9,24.2,30.50,WSW,250,0.0,0.0,76,0.00,,,0.01,Wunderground v.1.15,2013-01-11 04:46:00,
2013-01-10 23:52:00,31.2,24.2,30.50,NW,313,0.0,1.0,75,0.00,,,0.01,Wunderground v.1.15,2013-01-11 04:52:00,
2013-01-10 23:58:00,31.4,24.4,30.50,West,272,0.0,1.0,75,0.00,,,0.01,Wunderground v.1.15,2013-01-11 04:58:00,